Time;durP1;ratioP1;P1;durP2;ratioP2;P2;SDS_P1;SDS_P2;PMS_P1;PMS_P2;Temp;Humidity;BMP_temperature;BMP_pressure;BME280_temperature;BME280_humidity;BME280_pressure;Samples;Min_cycle;Max_cycle;Signal;HPM_P1;HPM_P2
2024/01/31 00:02:22;;;;;;;15.77;10.07;;;;;;;;;;5068821;28;20241;-29
2024/01/31 00:04:54;;;;;;;17.73;9.93;;;;;;;;;;5070077;28;20212;-35
2024/01/31 00:09:52;;;;;;;14.50;9.67;;;;;;;;;;5042294;28;20257;-32
2024/01/31 00:12:20;;;;;;;15.13;9.40;;;;;;;;;;5047062;28;20241;-32
2024/01/31 00:14:47;;;;;;;13.30;9.20;;;;;;;;;;5051012;28;20518;-35
2024/01/31 00:17:15;;;;;;;13.43;10.03;;;;;;;;;;5050763;28;20209;-32
2024/01/31 00:19:43;;;;;;;14.50;9.10;;;;;;;;;;5044462;28;20738;-35
2024/01/31 00:22:11;;;;;;;16.13;9.40;;;;;;;;;;5049928;28;20260;-32
2024/01/31 00:24:41;;;;;;;13.93;9.40;;;;;;;;;;5044805;28;20287;-31
2024/01/31 00:27:09;;;;;;;13.70;9.10;;;;;;;;;;5040206;28;20321;-31
2024/01/31 00:29:37;;;;;;;17.17;9.40;;;;;;;;;;5050156;28;20257;-32
2024/01/31 00:32:04;;;;;;;12.93;9.23;;;;;;;;;;5049695;28;20672;-32
2024/01/31 00:34:32;;;;;;;11.23;8.53;;;;;;;;;;5037433;28;20206;-34
2024/01/31 00:37:00;;;;;;;13.10;8.70;;;;;;;;;;5047279;28;20205;-32
2024/01/31 00:39:31;;;;;;;13.40;8.40;;;;;;;;;;5041441;28;20253;-37
2024/01/31 00:42:02;;;;;;;16.50;9.50;;;;;;;;;;5043791;28;20216;-35
2024/01/31 00:44:33;;;;;;;11.70;9.17;;;;;;;;;;5055416;28;20355;-35
2024/01/31 00:47:01;;;;;;;13.07;8.73;;;;;;;;;;5055751;28;20229;-36
2024/01/31 00:49:29;;;;;;;13.80;9.10;;;;;;;;;;5039856;28;20214;-37
2024/01/31 00:51:56;;;;;;;15.30;9.90;;;;;;;;;;5052311;28;20300;-38
2024/01/31 00:54:26;;;;;;;14.40;9.70;;;;;;;;;;5052877;28;20548;-29
2024/01/31 00:56:55;;;;;;;14.83;8.70;;;;;;;;;;5050564;28;20713;-32
2024/01/31 00:59:23;;;;;;;16.97;10.87;;;;;;;;;;5054362;28;20263;-34
2024/01/31 01:01:51;;;;;;;16.03;9.67;;;;;;;;;;5054669;28;20214;-35
2024/01/31 01:04:19;;;;;;;18.37;10.60;;;;;;;;;;5051754;28;20316;-31
2024/01/31 01:06:46;;;;;;;14.17;9.17;;;;;;;;;;5051680;28;20225;-33
2024/01/31 01:09:14;;;;;;;19.27;10.40;;;;;;;;;;5048140;28;20209;-32
2024/01/31 01:11:41;;;;;;;14.50;8.97;;;;;;;;;;5046052;28;20211;-33
2024/01/31 01:14:10;;;;;;;14.80;9.83;;;;;;;;;;5053879;28;20218;-33
2024/01/31 01:16:38;;;;;;;14.20;9.77;;;;;;;;;;5054355;28;20206;-29
2024/01/31 01:19:06;;;;;;;15.47;10.07;;;;;;;;;;5051526;28;20217;-33
2024/01/31 01:21:33;;;;;;;12.77;9.33;;;;;;;;;;5049990;28;20230;-32
2024/01/31 01:24:01;;;;;;;13.93;8.50;;;;;;;;;;5051990;28;20217;-41
2024/01/31 01:26:28;;;;;;;13.80;9.63;;;;;;;;;;5044146;28;20264;-33
2024/01/31 01:28:56;;;;;;;17.67;10.00;;;;;;;;;;5053755;28;20220;-32
2024/01/31 01:31:25;;;;;;;15.37;9.20;;;;;;;;;;5054434;28;20237;-34
2024/01/31 01:33:55;;;;;;;18.60;9.87;;;;;;;;;;5044880;28;20216;-30
2024/01/31 01:36:25;;;;;;;15.67;9.77;;;;;;;;;;5051027;28;20296;-33
2024/01/31 01:38:54;;;;;;;14.03;9.43;;;;;;;;;;5053209;28;20210;-31
2024/01/31 01:41:21;;;;;;;13.37;8.80;;;;;;;;;;5043368;28;20320;-32
2024/01/31 01:43:51;;;;;;;13.83;9.13;;;;;;;;;;5049827;28;20293;-30
2024/01/31 01:46:22;;;;;;;16.40;9.43;;;;;;;;;;5053779;28;20248;-30
2024/01/31 01:48:52;;;;;;;15.37;10.03;;;;;;;;;;5044774;28;20202;-36
2024/01/31 01:51:25;;;;;;;15.27;11.00;;;;;;;;;;5043954;28;20222;-35
2024/01/31 01:53:53;;;;;;;15.67;10.67;;;;;;;;;;5052253;28;20210;-34
2024/01/31 01:56:21;;;;;;;18.20;10.13;;;;;;;;;;5046993;28;20213;-32
2024/01/31 01:58:49;;;;;;;15.03;10.30;;;;;;;;;;5054527;28;20206;-33
2024/01/31 02:01:18;;;;;;;15.67;10.47;;;;;;;;;;5049039;28;20225;-37
2024/01/31 02:03:47;;;;;;;16.10;9.53;;;;;;;;;;5047069;28;20208;-34
2024/01/31 02:06:16;;;;;;;14.30;10.13;;;;;;;;;;5052422;28;20210;-33
2024/01/31 02:08:44;;;;;;;13.47;9.50;;;;;;;;;;5049323;28;20244;-31
2024/01/31 02:11:11;;;;;;;14.27;9.33;;;;;;;;;;5038310;28;20235;-35
2024/01/31 02:13:39;;;;;;;22.93;10.50;;;;;;;;;;5047976;28;20210;-35
2024/01/31 02:16:06;;;;;;;15.43;9.07;;;;;;;;;;5051927;28;20213;-38
2024/01/31 02:18:34;;;;;;;15.33;9.17;;;;;;;;;;5043710;28;20202;-34
2024/01/31 02:21:04;;;;;;;13.23;9.20;;;;;;;;;;5052122;28;20236;-30
2024/01/31 02:23:33;;;;;;;15.90;9.80;;;;;;;;;;5052249;28;20674;-31
2024/01/31 02:26:00;;;;;;;17.13;8.77;;;;;;;;;;5044031;28;20283;-32
2024/01/31 02:28:32;;;;;;;15.67;10.67;;;;;;;;;;5045666;28;20301;-33
2024/01/31 02:31:01;;;;;;;14.50;9.40;;;;;;;;;;5051222;28;20233;-35
2024/01/31 02:33:29;;;;;;;15.57;9.63;;;;;;;;;;5047896;28;20308;-32
2024/01/31 02:35:59;;;;;;;17.73;9.80;;;;;;;;;;5052795;28;20210;-33
2024/01/31 02:38:27;;;;;;;16.40;9.93;;;;;;;;;;5044938;28;20228;-33
2024/01/31 02:40:57;;;;;;;15.10;9.87;;;;;;;;;;5045560;28;20236;-32
2024/01/31 02:43:27;;;;;;;13.60;9.37;;;;;;;;;;5047128;28;20217;-32
2024/01/31 02:45:57;;;;;;;18.60;8.40;;;;;;;;;;5052599;28;20209;-34
2024/01/31 02:48:25;;;;;;;14.53;9.23;;;;;;;;;;5044271;28;20240;-35
2024/01/31 02:50:54;;;;;;;16.50;9.50;;;;;;;;;;5043054;28;20229;-33
2024/01/31 02:53:24;;;;;;;12.63;9.10;;;;;;;;;;5052772;28;20875;-31
2024/01/31 02:55:57;;;;;;;14.30;9.43;;;;;;;;;;5040736;28;20210;-31
2024/01/31 02:58:25;;;;;;;10.83;8.93;;;;;;;;;;5045017;28;20218;-32
2024/01/31 03:00:56;;;;;;;15.73;9.70;;;;;;;;;;5052340;28;20684;-32
2024/01/31 03:03:27;;;;;;;16.53;10.07;;;;;;;;;;5045214;28;20291;-32
2024/01/31 03:05:58;;;;;;;16.07;9.83;;;;;;;;;;5048636;28;20293;-32
2024/01/31 03:08:26;;;;;;;14.70;9.77;;;;;;;;;;5051547;28;20232;-33
2024/01/31 03:10:56;;;;;;;14.27;9.83;;;;;;;;;;5044879;28;20234;-31
2024/01/31 03:13:23;;;;;;;14.07;9.77;;;;;;;;;;5052372;28;20230;-33
2024/01/31 03:15:53;;;;;;;13.23;9.83;;;;;;;;;;5052419;28;20210;-35
2024/01/31 03:18:21;;;;;;;13.20;9.57;;;;;;;;;;5048367;28;20210;-34
2024/01/31 03:20:54;;;;;;;13.50;9.27;;;;;;;;;;5052156;28;20264;-33
2024/01/31 03:23:24;;;;;;;16.57;10.37;;;;;;;;;;5052447;28;20224;-37
2024/01/31 03:25:52;;;;;;;16.97;9.83;;;;;;;;;;5045808;28;20218;-33
2024/01/31 03:28:21;;;;;;;13.23;9.67;;;;;;;;;;5051357;28;20229;-31
2024/01/31 03:30:48;;;;;;;17.30;10.13;;;;;;;;;;5051136;28;20320;-32
2024/01/31 03:33:22;;;;;;;15.90;9.67;;;;;;;;;;5041746;28;20716;-31
2024/01/31 03:35:49;;;;;;;16.17;9.67;;;;;;;;;;5040252;28;20202;-38
2024/01/31 03:38:17;;;;;;;15.03;8.83;;;;;;;;;;5051674;28;20205;-31
2024/01/31 03:40:45;;;;;;;14.70;9.10;;;;;;;;;;5042302;28;20289;-34
2024/01/31 03:43:16;;;;;;;14.90;8.97;;;;;;;;;;5051758;28;20208;-30
2024/01/31 03:45:45;;;;;;;16.13;9.17;;;;;;;;;;5048701;28;20297;-30
2024/01/31 03:48:13;;;;;;;13.43;8.30;;;;;;;;;;5045566;28;20222;-32
2024/01/31 03:50:43;;;;;;;17.03;10.57;;;;;;;;;;5050318;28;20225;-32
2024/01/31 03:53:10;;;;;;;12.93;8.97;;;;;;;;;;5053579;28;20293;-32
2024/01/31 03:55:39;;;;;;;14.30;9.00;;;;;;;;;;5043402;28;20230;-33
2024/01/31 03:58:06;;;;;;;15.90;8.57;;;;;;;;;;5046439;28;20226;-30
2024/01/31 04:00:36;;;;;;;14.30;9.10;;;;;;;;;;5044846;28;20313;-34
2024/01/31 04:03:08;;;;;;;13.03;8.83;;;;;;;;;;5052217;28;20217;-34
2024/01/31 04:05:35;;;;;;;13.87;9.13;;;;;;;;;;5051781;28;20206;-35
2024/01/31 04:08:04;;;;;;;12.20;8.33;;;;;;;;;;5037582;28;20230;-35
2024/01/31 04:10:32;;;;;;;12.70;9.10;;;;;;;;;;5032943;28;20243;-33
2024/01/31 04:13:01;;;;;;;13.00;8.67;;;;;;;;;;5042242;28;20272;-32
2024/01/31 04:15:30;;;;;;;12.00;9.37;;;;;;;;;;5043352;28;20206;-29
2024/01/31 04:18:00;;;;;;;14.07;8.80;;;;;;;;;;5046125;28;20213;-34
2024/01/31 04:20:29;;;;;;;13.17;8.63;;;;;;;;;;5043602;28;20226;-31
2024/01/31 04:22:57;;;;;;;11.27;9.07;;;;;;;;;;5051195;28;20216;-35
2024/01/31 04:25:27;;;;;;;14.13;9.73;;;;;;;;;;5046138;28;20213;-35
2024/01/31 04:27:55;;;;;;;15.93;9.10;;;;;;;;;;5043479;28;20474;-35
2024/01/31 04:30:22;;;;;;;14.13;9.13;;;;;;;;;;5050577;28;20230;-35
2024/01/31 04:32:50;;;;;;;17.00;9.80;;;;;;;;;;5051885;28;20296;-33
2024/01/31 04:35:17;;;;;;;13.40;9.13;;;;;;;;;;5049221;28;20206;-36
2024/01/31 04:37:46;;;;;;;15.50;9.33;;;;;;;;;;5046112;28;20214;-35
2024/01/31 04:40:16;;;;;;;12.40;7.73;;;;;;;;;;5039625;28;20309;-33
2024/01/31 04:42:47;;;;;;;18.33;10.40;;;;;;;;;;5044275;28;20264;-36
2024/01/31 04:45:14;;;;;;;13.70;9.30;;;;;;;;;;5049976;28;20209;-30
2024/01/31 04:47:43;;;;;;;14.90;9.23;;;;;;;;;;5046313;28;20272;-32
2024/01/31 04:50:12;;;;;;;13.77;9.50;;;;;;;;;;5036891;28;20221;-33
2024/01/31 04:52:39;;;;;;;15.90;9.60;;;;;;;;;;5046741;28;20208;-32
2024/01/31 04:55:09;;;;;;;14.20;9.20;;;;;;;;;;5043657;28;20632;-33
2024/01/31 04:57:36;;;;;;;12.23;8.63;;;;;;;;;;5042673;28;20190;-33
2024/01/31 05:00:04;;;;;;;15.70;11.10;;;;;;;;;;5050125;28;20226;-32
2024/01/31 05:02:32;;;;;;;13.90;9.53;;;;;;;;;;5041361;28;20206;-32
2024/01/31 05:04:59;;;;;;;17.63;10.80;;;;;;;;;;5040752;28;20268;-33
2024/01/31 05:07:26;;;;;;;13.53;9.73;;;;;;;;;;5044410;28;20273;-33
2024/01/31 05:09:54;;;;;;;15.63;10.53;;;;;;;;;;5032091;28;20754;-33
2024/01/31 05:12:22;;;;;;;17.47;10.33;;;;;;;;;;5041071;28;20206;-29
2024/01/31 05:14:50;;;;;;;16.07;9.87;;;;;;;;;;5049314;28;20206;-34
2024/01/31 05:17:17;;;;;;;15.23;9.97;;;;;;;;;;5048193;28;20206;-33
2024/01/31 05:19:45;;;;;;;12.27;9.93;;;;;;;;;;5035583;28;20238;-32
2024/01/31 05:22:12;;;;;;;17.93;10.50;;;;;;;;;;5046169;28;20217;-31
2024/01/31 05:24:41;;;;;;;20.03;9.80;;;;;;;;;;5045182;28;20213;-32
2024/01/31 05:27:10;;;;;;;16.33;10.70;;;;;;;;;;5049028;28;20214;-32
2024/01/31 05:29:41;;;;;;;13.90;9.63;;;;;;;;;;5052344;28;20253;-35
2024/01/31 05:32:08;;;;;;;14.83;9.77;;;;;;;;;;5052563;28;20300;-31
2024/01/31 05:34:36;;;;;;;15.93;10.13;;;;;;;;;;5047836;28;20220;-36
2024/01/31 05:37:04;;;;;;;20.43;10.70;;;;;;;;;;5047069;28;20202;-34
2024/01/31 05:39:33;;;;;;;16.00;10.60;;;;;;;;;;5044746;28;20234;-37
2024/01/31 05:42:02;;;;;;;13.00;10.40;;;;;;;;;;5044118;28;20210;-33
2024/01/31 05:44:30;;;;;;;14.40;10.20;;;;;;;;;;5052669;28;20227;-36
2024/01/31 05:46:59;;;;;;;17.13;11.23;;;;;;;;;;5052746;28;20202;-35
2024/01/31 05:49:26;;;;;;;17.00;10.00;;;;;;;;;;5044007;28;20241;-35
2024/01/31 05:51:54;;;;;;;15.03;10.53;;;;;;;;;;5052728;28;20197;-34
2024/01/31 05:54:22;;;;;;;14.33;9.73;;;;;;;;;;5049011;28;20221;-33
2024/01/31 05:56:52;;;;;;;20.33;9.90;;;;;;;;;;5046850;28;20245;-31
2024/01/31 05:59:19;;;;;;;13.10;9.07;;;;;;;;;;5046247;28;20304;-34
2024/01/31 06:01:47;;;;;;;15.17;10.13;;;;;;;;;;5052954;28;20252;-36
2024/01/31 06:04:18;;;;;;;15.13;9.80;;;;;;;;;;5052600;28;20213;-32
2024/01/31 06:06:46;;;;;;;16.37;9.47;;;;;;;;;;5045747;28;20210;-34
2024/01/31 06:09:13;;;;;;;19.60;10.37;;;;;;;;;;5043396;28;20283;-33
2024/01/31 06:11:40;;;;;;;12.93;9.23;;;;;;;;;;5044762;28;20293;-32
2024/01/31 06:14:08;;;;;;;13.30;10.10;;;;;;;;;;5047499;28;20766;-31
2024/01/31 06:16:35;;;;;;;13.10;9.53;;;;;;;;;;5052241;28;20303;-35
2024/01/31 06:19:03;;;;;;;15.27;10.17;;;;;;;;;;5039789;28;20711;-33
2024/01/31 06:21:32;;;;;;;15.63;10.40;;;;;;;;;;5048052;28;20260;-36
2024/01/31 06:23:59;;;;;;;16.80;10.03;;;;;;;;;;5050843;28;20273;-31
2024/01/31 06:26:28;;;;;;;14.73;10.03;;;;;;;;;;5043379;28;20285;-34
2024/01/31 06:28:55;;;;;;;14.30;9.60;;;;;;;;;;5053734;28;20228;-33
2024/01/31 06:31:27;;;;;;;17.80;9.40;;;;;;;;;;5052176;28;20257;-31
2024/01/31 06:33:57;;;;;;;13.77;9.53;;;;;;;;;;5048455;28;20267;-33
2024/01/31 06:36:24;;;;;;;14.77;9.63;;;;;;;;;;5047991;28;20276;-35
2024/01/31 06:38:53;;;;;;;14.40;9.67;;;;;;;;;;5051691;28;20210;-32
2024/01/31 06:41:20;;;;;;;13.10;8.87;;;;;;;;;;5036957;28;20230;-36
2024/01/31 06:43:47;;;;;;;12.97;8.40;;;;;;;;;;5051254;28;20204;-33
2024/01/31 06:46:15;;;;;;;17.30;10.13;;;;;;;;;;5052352;28;20252;-34
2024/01/31 06:48:42;;;;;;;12.40;9.77;;;;;;;;;;5045643;28;20297;-36
2024/01/31 06:51:10;;;;;;;13.77;9.33;;;;;;;;;;5048036;28;20230;-35
2024/01/31 06:53:38;;;;;;;12.93;9.40;;;;;;;;;;5052240;28;20271;-32
2024/01/31 06:56:16;;;;;;;14.23;9.50;;;;;;;;;;5047338;28;20214;-31
2024/01/31 06:58:45;;;;;;;13.63;8.83;;;;;;;;;;5045096;28;20228;-32
2024/01/31 07:01:15;;;;;;;16.23;10.13;;;;;;;;;;5052565;28;20249;-35
2024/01/31 07:03:42;;;;;;;16.77;10.07;;;;;;;;;;5047256;28;20216;-33
2024/01/31 07:06:11;;;;;;;13.87;9.47;;;;;;;;;;5046902;28;20202;-32
2024/01/31 07:08:40;;;;;;;16.43;10.90;;;;;;;;;;5053575;28;20289;-34
2024/01/31 07:11:09;;;;;;;16.23;10.57;;;;;;;;;;5049819;28;20308;-34
2024/01/31 07:13:37;;;;;;;16.60;10.73;;;;;;;;;;5051473;28;20210;-33
2024/01/31 07:16:09;;;;;;;16.13;10.80;;;;;;;;;;5051130;28;20213;-36
2024/01/31 07:18:37;;;;;;;15.87;9.93;;;;;;;;;;5049227;28;20272;-35
2024/01/31 07:21:05;;;;;;;14.03;9.87;;;;;;;;;;5045025;28;20253;-31
2024/01/31 07:23:33;;;;;;;20.23;10.87;;;;;;;;;;5051585;28;20252;-37
2024/01/31 07:26:54;;;;;;;21.83;11.90;;;;;;;;;;5044033;28;20660;-34
2024/01/31 07:29:31;;;;;;;19.97;12.87;;;;;;;;;;5044461;28;20221;-38
2024/01/31 07:31:59;;;;;;;17.40;11.23;;;;;;;;;;5043546;28;20208;-34
2024/01/31 07:34:38;;;;;;;19.80;11.10;;;;;;;;;;5051014;28;20265;-31
2024/01/31 07:37:10;;;;;;;16.67;10.20;;;;;;;;;;5053288;28;20212;-37
2024/01/31 07:39:41;;;;;;;16.23;10.07;;;;;;;;;;5045049;28;20352;-33
2024/01/31 07:42:12;;;;;;;16.77;11.23;;;;;;;;;;5051706;28;20233;-30
2024/01/31 07:44:40;;;;;;;15.63;10.47;;;;;;;;;;5052759;28;20206;-34
2024/01/31 07:47:08;;;;;;;16.07;10.30;;;;;;;;;;5052577;28;20209;-34
2024/01/31 07:49:40;;;;;;;13.23;9.40;;;;;;;;;;5046319;28;20230;-36
2024/01/31 07:52:08;;;;;;;14.37;9.53;;;;;;;;;;5043867;28;20290;-33
2024/01/31 07:54:35;;;;;;;14.47;10.03;;;;;;;;;;5048475;28;20206;-31
2024/01/31 07:57:03;;;;;;;17.13;9.97;;;;;;;;;;5046158;28;20206;-35
2024/01/31 07:59:31;;;;;;;15.53;9.87;;;;;;;;;;5052092;28;20212;-34
2024/01/31 08:01:59;;;;;;;14.03;8.70;;;;;;;;;;5051528;28;20421;-33
2024/01/31 08:04:26;;;;;;;15.27;9.77;;;;;;;;;;5043402;28;20224;-33
2024/01/31 08:06:54;;;;;;;14.77;10.77;;;;;;;;;;5044747;28;20206;-34
2024/01/31 08:09:22;;;;;;;16.37;10.27;;;;;;;;;;5044089;28;20230;-35
2024/01/31 08:11:50;;;;;;;13.77;9.20;;;;;;;;;;5044821;28;20210;-37
2024/01/31 08:14:17;;;;;;;15.10;9.67;;;;;;;;;;5051928;28;20213;-33
2024/01/31 08:16:50;;;;;;;14.57;9.27;;;;;;;;;;5050109;28;20214;-32
2024/01/31 08:19:17;;;;;;;14.27;8.70;;;;;;;;;;5044822;28;20269;-32
2024/01/31 08:21:45;;;;;;;11.60;8.93;;;;;;;;;;5049993;28;20201;-31
2024/01/31 08:24:12;;;;;;;11.70;9.00;;;;;;;;;;5041250;28;20213;-34
2024/01/31 08:26:39;;;;;;;14.03;9.63;;;;;;;;;;5048731;28;20210;-37
2024/01/31 08:29:07;;;;;;;15.43;10.40;;;;;;;;;;5051377;28;20228;-37
2024/01/31 08:31:36;;;;;;;15.67;10.20;;;;;;;;;;5051672;28;20221;-34
2024/01/31 08:34:08;;;;;;;13.97;9.07;;;;;;;;;;5045578;28;20293;-30
2024/01/31 08:36:35;;;;;;;15.57;10.60;;;;;;;;;;5049190;28;20251;-33
2024/01/31 08:39:03;;;;;;;14.30;9.97;;;;;;;;;;5048726;28;20255;-33
2024/01/31 08:41:39;;;;;;;19.83;10.27;;;;;;;;;;5046835;28;20225;-30
2024/01/31 08:44:07;;;;;;;15.20;9.47;;;;;;;;;;5050762;28;20213;-33
2024/01/31 08:46:34;;;;;;;13.70;10.23;;;;;;;;;;5051379;28;20201;-35
2024/01/31 08:49:04;;;;;;;12.30;10.03;;;;;;;;;;5051328;28;20222;-31
2024/01/31 08:51:33;;;;;;;16.03;9.43;;;;;;;;;;5047726;28;20236;-37
2024/01/31 08:54:06;;;;;;;16.23;9.70;;;;;;;;;;5051460;28;20209;-32
2024/01/31 08:56:39;;;;;;;12.60;9.90;;;;;;;;;;5046116;28;20281;-36
2024/01/31 08:59:07;;;;;;;16.93;10.27;;;;;;;;;;5051680;28;20293;-35
2024/01/31 09:01:36;;;;;;;20.20;10.57;;;;;;;;;;5052278;28;20225;-34
2024/01/31 09:04:07;;;;;;;17.00;10.10;;;;;;;;;;5051361;28;20209;-35
2024/01/31 09:06:37;;;;;;;15.63;10.33;;;;;;;;;;5053749;28;20297;-33
2024/01/31 09:09:06;;;;;;;15.13;10.53;;;;;;;;;;5045101;28;20293;-38
2024/01/31 09:11:33;;;;;;;15.67;10.87;;;;;;;;;;5052972;28;20230;-34
2024/01/31 09:14:02;;;;;;;15.77;10.40;;;;;;;;;;5055764;28;20213;-31
2024/01/31 09:16:30;;;;;;;15.33;9.87;;;;;;;;;;5056065;28;20222;-33
2024/01/31 09:18:58;;;;;;;16.60;9.93;;;;;;;;;;5050967;28;20207;-32
2024/01/31 09:21:35;;;;;;;18.23;11.13;;;;;;;;;;5052372;28;20229;-30
2024/01/31 09:24:04;;;;;;;18.03;11.53;;;;;;;;;;5054117;28;20860;-33
2024/01/31 09:26:36;;;;;;;18.07;10.57;;;;;;;;;;5049496;28;20292;-34
2024/01/31 09:29:03;;;;;;;16.13;10.73;;;;;;;;;;5055259;28;20245;-34
2024/01/31 09:31:31;;;;;;;15.77;10.53;;;;;;;;;;5054831;28;20234;-31
2024/01/31 09:33:58;;;;;;;15.63;10.90;;;;;;;;;;5052694;28;20222;-31
2024/01/31 09:36:26;;;;;;;18.07;11.17;;;;;;;;;;5041772;28;20261;-34
2024/01/31 09:38:56;;;;;;;17.40;10.27;;;;;;;;;;5044367;28;20205;-33
2024/01/31 09:46:32;;;;;;;16.63;10.93;;;;;;;;;;5034357;28;20230;-28
2024/01/31 09:49:01;;;;;;;14.77;10.17;;;;;;;;;;5033393;28;20207;-29
2024/01/31 09:51:32;;;;;;;15.73;10.33;;;;;;;;;;5025992;28;20259;-29
2024/01/31 09:54:00;;;;;;;16.00;10.43;;;;;;;;;;5033481;28;20237;-28
2024/01/31 09:56:33;;;;;;;15.27;10.83;;;;;;;;;;5027680;28;20214;-28
2024/01/31 09:59:03;;;;;;;13.20;10.03;;;;;;;;;;5034435;28;20203;-28
2024/01/31 10:01:33;;;;;;;14.67;10.60;;;;;;;;;;5034619;28;20233;-29
2024/01/31 10:04:02;;;;;;;13.93;10.20;;;;;;;;;;5033775;28;20210;-27
2024/01/31 10:06:29;;;;;;;16.57;11.23;;;;;;;;;;5031333;28;20206;-27
2024/01/31 10:08:58;;;;;;;13.70;10.17;;;;;;;;;;5008663;28;20198;-27
2024/01/31 10:11:27;;;;;;;19.40;10.83;;;;;;;;;;5022885;28;20411;-27
2024/01/31 10:14:08;;;;;;;15.10;10.30;;;;;;;;;;5034969;28;20206;-27
2024/01/31 10:16:36;;;;;;;14.90;10.43;;;;;;;;;;5033322;28;20214;-28
2024/01/31 10:19:05;;;;;;;16.17;10.47;;;;;;;;;;5034451;28;20234;-28
2024/01/31 10:21:34;;;;;;;12.27;9.23;;;;;;;;;;5030283;28;20233;-27
2024/01/31 10:24:02;;;;;;;13.93;9.07;;;;;;;;;;5032910;28;20206;-28
2024/01/31 10:26:33;;;;;;;11.93;9.10;;;;;;;;;;5031059;28;20210;-25
2024/01/31 10:29:01;;;;;;;13.27;9.20;;;;;;;;;;5041222;28;20206;-27
2024/01/31 10:31:30;;;;;;;16.57;9.40;;;;;;;;;;5034320;28;20226;-27
2024/01/31 10:36:57;;;;;;;12.97;8.63;;;;;;;;;;5052314;28;20237;-36
2024/01/31 10:39:27;;;;;;;12.73;9.20;;;;;;;;;;5049481;28;20209;-35
2024/01/31 10:41:57;;;;;;;13.83;8.83;;;;;;;;;;5053985;28;20209;-36
2024/01/31 10:44:25;;;;;;;12.90;8.33;;;;;;;;;;5054308;28;20268;-33
2024/01/31 10:46:56;;;;;;;13.17;7.93;;;;;;;;;;5054227;28;20222;-35
2024/01/31 10:49:25;;;;;;;10.77;8.50;;;;;;;;;;5042423;28;20224;-36
2024/01/31 10:52:02;;;;;;;10.97;8.80;;;;;;;;;;5047379;28;20214;-33
2024/01/31 10:54:40;;;;;;;12.07;9.10;;;;;;;;;;5046024;28;20197;-32
2024/01/31 10:57:10;;;;;;;14.83;8.93;;;;;;;;;;5050051;28;20356;-34
2024/01/31 10:59:41;;;;;;;9.70;8.13;;;;;;;;;;5053179;28;20229;-35
2024/01/31 11:02:16;;;;;;;12.43;9.27;;;;;;;;;;5053610;28;20206;-32
2024/01/31 11:04:45;;;;;;;12.93;8.80;;;;;;;;;;5046551;28;20210;-33
2024/01/31 11:07:20;;;;;;;13.13;9.13;;;;;;;;;;5052495;28;20214;-33
2024/01/31 11:09:51;;;;;;;11.30;8.90;;;;;;;;;;5048905;28;20229;-31
2024/01/31 11:12:22;;;;;;;12.53;8.67;;;;;;;;;;5047967;28;20198;-31
2024/01/31 11:14:55;;;;;;;12.13;9.10;;;;;;;;;;5050441;28;20209;-32
2024/01/31 11:17:23;;;;;;;14.70;8.83;;;;;;;;;;5045676;28;20683;-37
2024/01/31 11:19:52;;;;;;;12.90;9.07;;;;;;;;;;5050833;28;20234;-34
2024/01/31 11:22:24;;;;;;;12.90;9.00;;;;;;;;;;5052445;28;20202;-35
2024/01/31 11:24:52;;;;;;;13.80;9.00;;;;;;;;;;5040872;28;20262;-34
2024/01/31 11:27:20;;;;;;;13.07;9.27;;;;;;;;;;5042841;28;20534;-32
2024/01/31 11:29:50;;;;;;;12.40;9.23;;;;;;;;;;5050380;28;20248;-37
2024/01/31 11:32:18;;;;;;;13.07;9.17;;;;;;;;;;5046857;28;20230;-33
2024/01/31 11:34:58;;;;;;;14.73;9.00;;;;;;;;;;5044045;28;20221;-34
2024/01/31 11:37:27;;;;;;;10.47;8.70;;;;;;;;;;5051954;28;20213;-33
2024/01/31 11:39:57;;;;;;;12.67;9.20;;;;;;;;;;5046144;28;20222;-32
2024/01/31 11:42:25;;;;;;;12.00;9.00;;;;;;;;;;5051194;28;20249;-36
2024/01/31 11:44:52;;;;;;;12.93;8.30;;;;;;;;;;5050820;28;20206;-33
2024/01/31 11:47:20;;;;;;;11.97;8.77;;;;;;;;;;5050777;28;20285;-33
2024/01/31 11:49:49;;;;;;;11.43;7.80;;;;;;;;;;5040284;28;20588;-35
2024/01/31 11:52:17;;;;;;;17.13;8.70;;;;;;;;;;5042773;28;20260;-31
2024/01/31 11:54:47;;;;;;;13.57;9.40;;;;;;;;;;5044504;28;20207;-37
2024/01/31 11:57:15;;;;;;;13.20;8.40;;;;;;;;;;5050131;28;20193;-31
2024/01/31 11:59:43;;;;;;;13.07;8.13;;;;;;;;;;5049849;28;20237;-32
2024/01/31 12:02:10;;;;;;;12.53;8.17;;;;;;;;;;5050843;28;20283;-36
2024/01/31 12:04:39;;;;;;;11.97;8.17;;;;;;;;;;5040795;28;20293;-35
2024/01/31 12:07:07;;;;;;;11.77;7.57;;;;;;;;;;5050978;28;20309;-32
2024/01/31 12:09:35;;;;;;;11.33;7.90;;;;;;;;;;5043365;28;20230;-33
2024/01/31 12:12:05;;;;;;;12.10;8.30;;;;;;;;;;5042952;28;20204;-34
2024/01/31 12:14:33;;;;;;;12.37;7.93;;;;;;;;;;5050832;28;20317;-34
2024/01/31 12:17:00;;;;;;;10.47;7.70;;;;;;;;;;5051252;28;20210;-32
2024/01/31 12:19:29;;;;;;;11.57;8.00;;;;;;;;;;5044274;28;20210;-33
2024/01/31 12:21:56;;;;;;;12.50;7.63;;;;;;;;;;5052824;28;20213;-32
2024/01/31 12:24:24;;;;;;;10.00;6.93;;;;;;;;;;5044021;28;20328;-36
2024/01/31 12:26:51;;;;;;;12.27;7.67;;;;;;;;;;5048046;28;20208;-37
2024/01/31 12:29:21;;;;;;;9.00;6.90;;;;;;;;;;5049604;28;20685;-34
2024/01/31 12:31:48;;;;;;;8.00;6.53;;;;;;;;;;5049290;28;20741;-34
2024/01/31 12:34:15;;;;;;;11.90;7.20;;;;;;;;;;5043303;28;20282;-36
2024/01/31 12:36:42;;;;;;;10.43;7.77;;;;;;;;;;5042993;28;20210;-33
2024/01/31 12:39:16;;;;;;;15.80;7.60;;;;;;;;;;5043051;28;20201;-34
2024/01/31 12:41:43;;;;;;;10.53;7.30;;;;;;;;;;5042304;28;20263;-31
2024/01/31 12:44:15;;;;;;;10.43;7.70;;;;;;;;;;5051055;28;20677;-30
2024/01/31 12:46:44;;;;;;;15.17;7.70;;;;;;;;;;5049971;28;20264;-31
2024/01/31 12:49:12;;;;;;;10.10;6.77;;;;;;;;;;5045380;28;20297;-32
2024/01/31 12:51:39;;;;;;;10.30;6.97;;;;;;;;;;5045314;28;20298;-31
2024/01/31 12:54:09;;;;;;;10.93;7.37;;;;;;;;;;5040902;28;20209;-33
2024/01/31 12:56:36;;;;;;;11.00;8.10;;;;;;;;;;5046790;28;20281;-31
2024/01/31 12:59:04;;;;;;;8.93;6.87;;;;;;;;;;5050096;28;20206;-33
2024/01/31 13:01:31;;;;;;;13.07;7.10;;;;;;;;;;5050502;28;20313;-31
2024/01/31 13:04:03;;;;;;;10.13;7.23;;;;;;;;;;5047165;28;20285;-31
2024/01/31 13:06:31;;;;;;;13.90;7.50;;;;;;;;;;5038354;28;20320;-33
2024/01/31 13:08:58;;;;;;;17.77;7.57;;;;;;;;;;5042640;28;20213;-35
2024/01/31 13:11:26;;;;;;;10.77;6.87;;;;;;;;;;5039046;28;20237;-31
2024/01/31 13:13:54;;;;;;;10.07;7.07;;;;;;;;;;5049744;28;20218;-30
2024/01/31 13:16:23;;;;;;;11.67;7.60;;;;;;;;;;5050158;28;20221;-35
2024/01/31 13:18:50;;;;;;;8.40;6.87;;;;;;;;;;5044904;28;20582;-32
2024/01/31 13:21:19;;;;;;;11.27;7.27;;;;;;;;;;5048383;28;20214;-35
2024/01/31 13:23:46;;;;;;;11.07;7.50;;;;;;;;;;5049493;28;20217;-29
2024/01/31 13:26:14;;;;;;;11.33;7.50;;;;;;;;;;5039631;28;20285;-36
2024/01/31 13:28:41;;;;;;;13.47;7.03;;;;;;;;;;5046209;28;20210;-32
2024/01/31 13:31:09;;;;;;;9.33;6.97;;;;;;;;;;5043221;28;20239;-35
2024/01/31 13:33:39;;;;;;;8.07;6.77;;;;;;;;;;5047190;28;20233;-31
2024/01/31 13:36:08;;;;;;;9.87;7.37;;;;;;;;;;5050895;28;20225;-37
2024/01/31 13:38:40;;;;;;;9.10;6.97;;;;;;;;;;5050998;28;20210;-34
2024/01/31 13:41:12;;;;;;;11.63;7.60;;;;;;;;;;5037929;28;20310;-37
2024/01/31 13:43:45;;;;;;;13.07;8.40;;;;;;;;;;5048352;28;20229;-35
2024/01/31 13:46:16;;;;;;;9.67;7.20;;;;;;;;;;5051594;28;20206;-31
2024/01/31 13:48:46;;;;;;;12.60;7.87;;;;;;;;;;5052027;28;20198;-33
2024/01/31 13:51:18;;;;;;;10.33;7.27;;;;;;;;;;5047462;28;20246;-35
2024/01/31 13:53:50;;;;;;;9.33;7.67;;;;;;;;;;5055777;28;20202;-29
2024/01/31 13:56:21;;;;;;;10.13;7.40;;;;;;;;;;5048690;28;20210;-36
2024/01/31 13:58:49;;;;;;;11.97;7.63;;;;;;;;;;5054896;28;20213;-31
2024/01/31 14:01:21;;;;;;;10.50;7.60;;;;;;;;;;5055956;28;20224;-33
2024/01/31 14:03:49;;;;;;;10.70;7.47;;;;;;;;;;5054723;28;20213;-32
2024/01/31 14:06:17;;;;;;;11.00;7.30;;;;;;;;;;5040832;28;20209;-31
2024/01/31 14:08:51;;;;;;;12.47;7.17;;;;;;;;;;5050373;28;20255;-35
2024/01/31 14:11:28;;;;;;;10.00;7.07;;;;;;;;;;5045497;28;20257;-35
2024/01/31 14:13:57;;;;;;;9.07;6.60;;;;;;;;;;5052268;28;20216;-33
2024/01/31 14:16:35;;;;;;;8.73;7.10;;;;;;;;;;5055021;28;20206;-33
2024/01/31 14:19:03;;;;;;;11.30;7.20;;;;;;;;;;5050078;28;20220;-34
2024/01/31 14:21:33;;;;;;;10.40;7.40;;;;;;;;;;5049044;28;20226;-32
2024/01/31 14:24:01;;;;;;;9.87;7.73;;;;;;;;;;5053259;28;20233;-32
2024/01/31 14:26:31;;;;;;;12.43;8.47;;;;;;;;;;5044895;28;20580;-35
2024/01/31 14:28:59;;;;;;;10.97;8.00;;;;;;;;;;5054092;28;20220;-30
2024/01/31 14:31:31;;;;;;;12.77;9.53;;;;;;;;;;5054660;28;20225;-34
2024/01/31 14:33:59;;;;;;;12.20;8.00;;;;;;;;;;5051650;28;20207;-34
2024/01/31 14:36:26;;;;;;;10.50;7.73;;;;;;;;;;5046805;28;20281;-31
2024/01/31 14:38:57;;;;;;;10.00;7.90;;;;;;;;;;5053995;28;20221;-33
2024/01/31 14:43:57;;;;;;;9.43;7.50;;;;;;;;;;5080247;28;20224;-36
2024/01/31 14:46:39;;;;;;;12.07;7.97;;;;;;;;;;5074314;28;20215;-31
2024/01/31 14:49:10;;;;;;;11.47;8.07;;;;;;;;;;5075444;28;20206;-33
2024/01/31 14:51:39;;;;;;;9.60;7.70;;;;;;;;;;5044799;28;20272;-34